createdAt,value
2023-01-28T00:00:10.151Z,12.85
2023-01-28T00:02:37.390Z,13.20
2023-01-28T00:05:05.185Z,13.05
2023-01-28T00:07:32.895Z,13.07
2023-01-28T00:10:00.294Z,13.30
2023-01-28T00:12:27.636Z,13.02
2023-01-28T00:14:54.855Z,13.55
2023-01-28T00:17:22.090Z,12.93
2023-01-28T00:19:49.377Z,13.13
2023-01-28T00:22:16.914Z,11.93
2023-01-28T00:24:44.683Z,12.80
2023-01-28T00:27:13.046Z,13.15
2023-01-28T00:29:40.387Z,12.73
2023-01-28T00:32:08.288Z,12.20
2023-01-28T00:34:35.569Z,12.27
2023-01-28T00:37:02.939Z,12.75
2023-01-28T00:39:30.313Z,12.82
2023-01-28T00:41:57.836Z,12.57
2023-01-28T00:44:25.042Z,13.02
2023-01-28T00:46:52.541Z,13.18
2023-01-28T00:49:20.482Z,13.18
2023-01-28T00:51:49.194Z,13.13
2023-01-28T00:54:16.572Z,11.82
2023-01-28T00:56:43.813Z,12.75
2023-01-28T00:59:11.399Z,13.10
2023-01-28T01:01:38.715Z,12.00
2023-01-28T01:04:06.442Z,12.43
2023-01-28T01:06:37.326Z,12.23
2023-01-28T01:09:08.423Z,13.15
2023-01-28T01:11:36.576Z,13.38
2023-01-28T01:14:05.282Z,12.50
2023-01-28T01:16:33.565Z,13.57
2023-01-28T01:19:02.098Z,12.43
2023-01-28T01:21:30.911Z,12.95
2023-01-28T01:23:58.671Z,12.77
2023-01-28T01:26:27.925Z,13.85
2023-01-28T01:28:55.295Z,12.60
2023-01-28T01:31:23.325Z,12.98
2023-01-28T01:33:52.419Z,13.00
2023-01-28T01:36:22.048Z,12.43
2023-01-28T01:38:54.207Z,12.43
2023-01-28T01:41:30.496Z,12.38
2023-01-28T01:44:02.267Z,11.00
2023-01-28T01:46:42.403Z,12.00
2023-01-28T01:49:26.234Z,10.68
2023-01-28T01:52:01.622Z,11.88
2023-01-28T01:54:32.412Z,10.85
2023-01-28T01:57:00.810Z,12.32
2023-01-28T01:59:32.890Z,10.73
2023-01-28T02:02:07.283Z,12.50
2023-01-28T02:04:42.090Z,11.07
2023-01-28T02:07:12.525Z,11.27
2023-01-28T02:09:41.764Z,9.75
2023-01-28T02:12:18.105Z,11.65
2023-01-28T02:14:55.716Z,10.88
2023-01-28T02:17:23.437Z,11.30
2023-01-28T02:20:02.174Z,11.00
2023-01-28T02:22:57.250Z,11.40
2023-01-28T02:25:43.434Z,10.27
2023-01-28T02:28:34.361Z,10.25
2023-01-28T02:31:29.503Z,10.25
2023-01-28T02:33:59.645Z,10.85
2023-01-28T02:36:39.285Z,8.85
2023-01-28T02:39:15.864Z,10.50
2023-01-28T02:42:06.903Z,9.50
2023-01-28T02:44:34.499Z,10.25
2023-01-28T02:47:21.756Z,9.43
2023-01-28T02:49:55.244Z,9.50
2023-01-28T02:53:15.128Z,9.93
2023-01-28T02:55:54.361Z,8.57
2023-01-28T02:58:47.485Z,11.27
2023-01-28T03:01:22.289Z,10.30
2023-01-28T03:04:12.233Z,10.63
2023-01-28T03:06:47.115Z,10.20
2023-01-28T03:09:27.311Z,10.25
2023-01-28T03:12:25.489Z,9.20
2023-01-28T03:15:18.565Z,10.77
2023-01-28T03:18:11.548Z,9.80
2023-01-28T03:21:13.653Z,10.68
2023-01-28T03:24:22.629Z,9.65
2023-01-28T03:27:29.430Z,10.43
2023-01-28T03:30:21.964Z,8.80
2023-01-28T03:33:09.163Z,9.55
2023-01-28T03:35:57.366Z,9.73
2023-01-28T03:38:34.341Z,10.50
2023-01-28T03:41:03.872Z,10.13
2023-01-28T03:43:31.584Z,11.02
2023-01-28T03:46:00.034Z,9.90
2023-01-28T03:48:29.235Z,9.55
2023-01-28T03:50:56.816Z,10.55
2023-01-28T03:53:24.167Z,10.75
2023-01-28T03:55:53.635Z,9.77
2023-01-28T03:58:21.564Z,10.05
2023-01-28T04:00:49.077Z,10.27
2023-01-28T04:03:19.189Z,10.57
2023-01-28T04:06:00.038Z,10.15
2023-01-28T04:08:27.514Z,10.57
2023-01-28T04:10:55.216Z,10.57
2023-01-28T04:13:23.062Z,9.93
2023-01-28T04:15:50.499Z,11.02
2023-01-28T04:18:18.027Z,9.02
2023-01-28T04:20:45.316Z,10.15
2023-01-28T04:23:12.408Z,9.43
2023-01-28T04:25:39.669Z,10.10
2023-01-28T04:28:07.270Z,10.57
2023-01-28T04:30:35.245Z,10.13
2023-01-28T04:33:02.758Z,9.93
2023-01-28T04:35:30.288Z,10.35
2023-01-28T04:37:57.786Z,9.65
2023-01-28T04:40:25.143Z,9.50
2023-01-28T04:42:56.698Z,10.85
2023-01-28T04:45:24.454Z,10.32
2023-01-28T04:47:52.237Z,10.10
2023-01-28T04:50:19.544Z,10.45
2023-01-28T04:52:46.857Z,10.32
2023-01-28T04:55:14.358Z,9.18
2023-01-28T04:57:41.987Z,9.43
2023-01-28T05:00:10.206Z,9.82
2023-01-28T05:02:37.539Z,9.70
2023-01-28T05:05:09.164Z,9.32
2023-01-28T05:07:37.115Z,10.23
2023-01-28T05:10:05.490Z,9.80
2023-01-28T05:12:34.332Z,10.18
2023-01-28T05:15:02.355Z,9.50
2023-01-28T05:17:29.703Z,9.38
2023-01-28T05:19:57.520Z,9.35
2023-01-28T05:22:25.125Z,9.88
2023-01-28T05:24:52.703Z,10.05
2023-01-28T05:27:20.181Z,9.68
2023-01-28T05:29:47.904Z,9.85
2023-01-28T05:32:15.265Z,9.68
2023-01-28T05:34:42.736Z,10.52
2023-01-28T05:37:10.140Z,9.73
2023-01-28T05:39:37.559Z,10.68
2023-01-28T05:42:04.829Z,10.68
2023-01-28T05:44:32.696Z,10.13
2023-01-28T05:47:00.283Z,9.90
2023-01-28T05:49:27.570Z,10.10
2023-01-28T05:51:54.776Z,10.30
2023-01-28T05:54:22.419Z,10.82
2023-01-28T05:56:49.997Z,10.55
2023-01-28T05:59:18.267Z,9.27
2023-01-28T06:01:45.508Z,9.63
2023-01-28T06:04:13.118Z,9.68
2023-01-28T06:06:40.789Z,9.90
2023-01-28T06:09:08.197Z,10.13
2023-01-28T06:11:36.027Z,10.63
2023-01-28T06:14:03.352Z,10.80
2023-01-28T06:16:30.736Z,9.75
2023-01-28T06:18:58.019Z,10.63
2023-01-28T06:21:25.443Z,10.98
2023-01-28T06:23:52.805Z,9.98
2023-01-28T06:26:20.547Z,13.57
2023-01-28T06:28:48.133Z,13.05
2023-01-28T06:31:15.782Z,9.90
2023-01-28T06:33:43.072Z,9.90
2023-01-28T06:36:10.804Z,10.48
2023-01-28T06:38:38.783Z,9.63
2023-01-28T06:41:05.990Z,10.45
2023-01-28T06:43:33.374Z,10.30
2023-01-28T06:46:01.621Z,12.05
2023-01-28T06:48:29.072Z,10.27
2023-01-28T06:50:56.354Z,9.93
2023-01-28T06:53:23.748Z,11.25
2023-01-28T06:55:51.139Z,9.43
2023-01-28T06:58:18.572Z,10.63
2023-01-28T07:00:45.941Z,10.88
2023-01-28T07:03:13.758Z,11.23
2023-01-28T07:05:41.185Z,10.82
2023-01-28T07:08:08.832Z,10.10
2023-01-28T07:10:36.347Z,9.80
2023-01-28T07:13:03.849Z,10.00
2023-01-28T07:15:31.326Z,9.65
2023-01-28T07:17:59.572Z,9.93
2023-01-28T07:20:27.350Z,9.77
2023-01-28T07:22:55.199Z,10.40
2023-01-28T07:25:22.461Z,10.18
2023-01-28T07:27:51.252Z,10.23
2023-01-28T07:30:21.191Z,10.82
2023-01-28T07:32:52.895Z,10.90
2023-01-28T07:35:20.253Z,10.75
2023-01-28T07:37:58.908Z,10.52
2023-01-28T07:40:27.467Z,10.77
2023-01-28T07:42:56.577Z,10.68
2023-01-28T07:45:25.751Z,11.45
2023-01-28T07:47:57.421Z,10.57
2023-01-28T07:50:25.679Z,11.00
2023-01-28T07:52:52.924Z,10.77
2023-01-28T07:55:20.188Z,10.77
2023-01-28T07:57:55.458Z,11.57
2023-01-28T08:00:23.792Z,12.57
2023-01-28T08:02:56.096Z,11.23
2023-01-28T08:05:23.760Z,11.48
2023-01-28T08:07:51.384Z,11.27
2023-01-28T08:10:19.912Z,11.68
2023-01-28T08:13:01.052Z,10.25
2023-01-28T08:15:29.481Z,15.75
2023-01-28T08:17:59.793Z,14.65
2023-01-28T08:20:29.368Z,11.55
2023-01-28T08:23:13.609Z,11.77
2023-01-28T08:25:40.867Z,11.25
2023-01-28T08:28:09.215Z,12.05
2023-01-28T08:30:39.158Z,12.02
2023-01-28T08:33:10.712Z,10.85
2023-01-28T08:35:38.228Z,11.05
2023-01-28T08:38:07.852Z,11.02
2023-01-28T08:40:35.710Z,10.82
2023-01-28T08:43:03.410Z,10.95
2023-01-28T08:45:32.023Z,23.95
2023-01-28T08:48:12.122Z,69.47
2023-01-28T08:50:40.193Z,35.30
2023-01-28T08:53:15.937Z,27.52
2023-01-28T08:55:43.462Z,26.40
2023-01-28T08:58:14.252Z,15.95
2023-01-28T09:00:42.020Z,12.13
2023-01-28T09:03:09.337Z,13.60
2023-01-28T09:05:37.558Z,11.73
2023-01-28T09:08:07.100Z,12.80
2023-01-28T09:10:34.474Z,11.55
2023-01-28T09:13:09.863Z,11.55
2023-01-28T09:15:37.889Z,13.80
2023-01-28T09:18:06.163Z,12.00
2023-01-28T09:20:33.716Z,10.98
2023-01-28T09:23:01.672Z,10.98
2023-01-28T09:25:29.081Z,11.50
2023-01-28T09:27:56.422Z,11.48
2023-01-28T09:30:23.850Z,11.05
2023-01-28T09:32:52.914Z,11.25
2023-01-28T09:35:20.284Z,11.77
2023-01-28T09:37:48.328Z,12.07
2023-01-28T09:40:24.873Z,11.07
2023-01-28T09:43:23.088Z,10.40
2023-01-28T09:45:54.820Z,11.60
2023-01-28T09:48:33.075Z,9.98
2023-01-28T09:51:02.152Z,12.20
2023-01-28T09:53:32.733Z,10.90
2023-01-28T09:56:07.790Z,11.25
2023-01-28T09:58:35.380Z,11.73
2023-01-28T10:01:37.254Z,9.50
2023-01-28T10:04:32.389Z,11.55
2023-01-28T10:07:28.086Z,12.18
2023-01-28T10:10:17.142Z,11.85
2023-01-28T10:13:07.916Z,11.52
2023-01-28T10:16:08.195Z,11.88
2023-01-28T10:18:50.930Z,12.27
2023-01-28T10:22:02.118Z,11.80
2023-01-28T10:24:39.836Z,12.02
2023-01-28T10:27:21.878Z,10.88
2023-01-28T10:29:50.159Z,10.82
2023-01-28T10:32:23.483Z,10.65
2023-01-28T10:34:53.740Z,10.70
2023-01-28T10:37:21.886Z,9.45
2023-01-28T10:39:49.462Z,9.57
2023-01-28T10:42:29.468Z,10.93
2023-01-28T10:45:20.827Z,10.25
2023-01-28T10:48:02.422Z,10.48
2023-01-28T10:50:31.617Z,9.98
2023-01-28T10:53:01.011Z,9.55
2023-01-28T10:55:49.299Z,10.05
2023-01-28T10:58:37.338Z,8.85
2023-01-28T11:01:07.363Z,10.13
2023-01-28T11:03:37.615Z,9.07
2023-01-28T11:06:05.581Z,9.30
2023-01-28T11:08:44.431Z,8.38
2023-01-28T11:11:15.566Z,9.52
2023-01-28T11:13:54.419Z,8.93
2023-01-28T11:16:22.646Z,9.40
2023-01-28T11:18:55.332Z,8.93
2023-01-28T11:21:26.394Z,9.32
2023-01-28T11:24:05.799Z,9.20
2023-01-28T11:26:35.271Z,9.48
2023-01-28T11:29:02.778Z,8.88
2023-01-28T11:31:37.772Z,8.70
2023-01-28T11:34:06.297Z,8.55
2023-01-28T11:36:35.260Z,8.65
2023-01-28T11:39:17.538Z,9.13
2023-01-28T11:41:44.924Z,8.82
2023-01-28T11:44:23.446Z,10.57
2023-01-28T11:47:14.960Z,10.25
2023-01-28T11:50:02.596Z,10.13
2023-01-28T11:53:04.990Z,9.88
2023-01-28T11:55:32.410Z,9.95
2023-01-28T11:58:30.843Z,8.95
2023-01-28T12:01:17.187Z,10.00
2023-01-28T12:04:15.305Z,9.48
2023-01-28T12:06:59.858Z,11.13
2023-01-28T12:10:01.593Z,10.65
2023-01-28T12:12:58.697Z,12.40
2023-01-28T12:15:41.338Z,11.63
2023-01-28T12:18:27.296Z,11.13
2023-01-28T12:21:08.284Z,11.82
2023-01-28T12:24:04.472Z,10.65
2023-01-28T12:26:56.418Z,12.07
2023-01-28T12:29:33.089Z,11.23
2023-01-28T12:32:16.853Z,11.32
2023-01-28T12:35:00.587Z,12.05
2023-01-28T12:37:56.510Z,10.97
2023-01-28T12:40:31.385Z,13.25
2023-01-28T12:42:59.736Z,11.32
2023-01-28T12:45:40.908Z,11.20
2023-01-28T12:48:15.158Z,12.13
2023-01-28T12:50:52.123Z,8.68
2023-01-28T12:53:22.364Z,11.07
2023-01-28T12:55:56.475Z,11.52
2023-01-28T12:58:45.552Z,13.15
2023-01-28T13:01:16.950Z,12.10
2023-01-28T13:03:53.537Z,10.77
2023-01-28T13:06:25.110Z,11.05
2023-01-28T13:09:01.314Z,11.80
2023-01-28T13:11:35.400Z,10.75
2023-01-28T13:14:04.515Z,12.73
2023-01-28T13:16:37.931Z,12.02
2023-01-28T13:19:20.794Z,11.32
2023-01-28T13:21:50.579Z,11.43
2023-01-28T13:24:23.247Z,12.02
2023-01-28T13:26:53.299Z,8.70
2023-01-28T13:29:40.836Z,10.07
2023-01-28T13:32:30.119Z,11.15
2023-01-28T13:35:06.853Z,12.23
2023-01-28T13:37:39.171Z,11.70
2023-01-28T13:40:15.371Z,11.05
2023-01-28T13:42:43.158Z,12.95
2023-01-28T13:45:16.834Z,11.68
2023-01-28T13:47:51.555Z,12.27
2023-01-28T13:50:24.777Z,13.25
2023-01-28T13:53:04.058Z,11.68
2023-01-28T13:55:45.402Z,11.60
2023-01-28T13:58:43.932Z,11.50
2023-01-28T14:01:32.535Z,12.38
2023-01-28T14:04:45.041Z,11.98
2023-01-28T14:07:56.442Z,11.93
2023-01-28T14:10:42.382Z,11.98
2023-01-28T14:13:09.768Z,12.48
2023-01-28T14:16:04.717Z,12.20
2023-01-28T14:18:43.094Z,11.20
2023-01-28T14:21:22.541Z,12.43
2023-01-28T14:23:53.358Z,12.32
2023-01-28T14:26:39.266Z,12.43
2023-01-28T14:29:37.495Z,11.98
2023-01-28T14:32:11.945Z,12.13
2023-01-28T14:34:39.309Z,9.88
2023-01-28T14:37:09.836Z,12.25
2023-01-28T14:39:44.221Z,11.27
2023-01-28T14:42:19.152Z,11.75
2023-01-28T14:44:49.157Z,11.10
2023-01-28T14:47:37.656Z,12.57
2023-01-28T14:50:48.053Z,10.15
2023-01-28T14:53:52.880Z,12.50
2023-01-28T14:57:01.863Z,12.90
2023-01-28T14:59:38.065Z,12.05
2023-01-28T15:02:25.130Z,11.35
2023-01-28T15:04:53.787Z,11.60
2023-01-28T15:07:22.573Z,12.18
2023-01-28T15:10:08.647Z,10.30
2023-01-28T15:12:39.733Z,12.05
2023-01-28T15:15:38.810Z,11.57
2023-01-28T15:18:18.768Z,9.55
2023-01-28T15:20:48.504Z,10.45
2023-01-28T15:23:18.024Z,9.05
2023-01-28T15:25:45.786Z,8.23
2023-01-28T15:28:31.403Z,6.95
2023-01-28T15:30:59.841Z,7.43
2023-01-28T15:33:27.390Z,7.18
2023-01-28T15:35:56.712Z,7.25
2023-01-28T15:38:26.547Z,8.23
2023-01-28T15:41:00.383Z,7.97
2023-01-28T15:43:33.269Z,6.95
2023-01-28T15:46:01.626Z,7.65
2023-01-28T15:48:34.747Z,7.45
2023-01-28T15:51:08.162Z,7.63
2023-01-28T15:53:43.009Z,7.15
2023-01-28T15:56:14.565Z,8.52
2023-01-28T15:58:42.879Z,7.85
2023-01-28T16:01:10.394Z,7.32
2023-01-28T16:03:42.126Z,7.97
2023-01-28T16:06:19.230Z,7.75
2023-01-28T16:09:02.087Z,8.23
2023-01-28T16:11:34.020Z,8.30
2023-01-28T16:14:01.942Z,8.43
2023-01-28T16:16:38.694Z,8.35
2023-01-28T16:19:07.692Z,8.30
2023-01-28T16:21:44.954Z,8.52
2023-01-28T16:24:25.647Z,8.77
2023-01-28T16:27:04.756Z,8.23
2023-01-28T16:29:32.410Z,9.25
2023-01-28T16:32:01.143Z,9.48
2023-01-28T16:34:28.424Z,8.15
2023-01-28T16:37:00.217Z,7.88
2023-01-28T16:39:28.105Z,7.93
2023-01-28T16:41:57.029Z,8.07
2023-01-28T16:44:24.402Z,8.50
2023-01-28T16:46:51.923Z,8.35
2023-01-28T16:49:19.422Z,7.60
2023-01-28T16:51:47.038Z,9.30
2023-01-28T16:54:16.667Z,9.13
2023-01-28T16:56:46.281Z,9.05
2023-01-28T16:59:16.280Z,9.88
2023-01-28T17:01:44.848Z,9.07
2023-01-28T17:04:13.185Z,8.93
2023-01-28T17:06:44.860Z,9.10
2023-01-28T17:09:13.624Z,8.38
2023-01-28T17:11:41.435Z,9.45
2023-01-28T17:14:09.946Z,8.77
2023-01-28T17:16:37.489Z,8.07
2023-01-28T17:19:05.324Z,8.93
2023-01-28T17:21:32.823Z,8.30
2023-01-28T17:24:01.149Z,8.88
2023-01-28T17:26:31.297Z,8.32
2023-01-28T17:28:58.480Z,8.20
2023-01-28T17:31:26.805Z,7.90
2023-01-28T17:33:56.019Z,9.23
2023-01-28T17:36:24.929Z,9.13
2023-01-28T17:38:52.499Z,9.57
2023-01-28T17:41:20.103Z,9.38
2023-01-28T17:43:51.986Z,10.07
2023-01-28T17:46:19.974Z,9.15
2023-01-28T17:48:47.477Z,8.93
2023-01-28T17:51:19.246Z,9.52
2023-01-28T17:53:51.516Z,9.43
2023-01-28T17:56:21.897Z,9.23
2023-01-28T17:58:53.084Z,8.88
2023-01-28T18:01:22.044Z,8.55
2023-01-28T18:03:49.951Z,9.32
2023-01-28T18:06:17.669Z,9.85
2023-01-28T18:08:44.956Z,8.77
2023-01-28T18:11:14.545Z,9.45
2023-01-28T18:13:42.661Z,9.48
2023-01-28T18:16:18.153Z,9.45
2023-01-28T18:18:45.953Z,9.27
2023-01-28T18:21:52.750Z,9.25
2023-01-28T18:24:25.268Z,9.15
2023-01-28T18:26:55.568Z,8.82
2023-01-28T18:29:24.406Z,8.85
2023-01-28T18:31:54.504Z,9.48
2023-01-28T18:34:24.191Z,8.60
2023-01-28T18:36:51.804Z,9.27
2023-01-28T18:39:20.353Z,9.38
2023-01-28T18:41:47.649Z,9.57
2023-01-28T18:44:16.295Z,9.77
2023-01-28T18:46:43.614Z,8.90
2023-01-28T18:49:11.370Z,9.45
2023-01-28T18:51:38.797Z,9.68
2023-01-28T18:54:10.630Z,9.57
2023-01-28T18:56:38.928Z,9.65
2023-01-28T18:59:07.530Z,8.98
2023-01-28T19:01:35.345Z,8.55
2023-01-28T19:04:03.059Z,9.25
2023-01-28T19:06:31.502Z,9.95
2023-01-28T19:09:01.737Z,9.05
2023-01-28T19:11:30.384Z,9.25
2023-01-28T19:13:58.002Z,9.40
2023-01-28T19:16:25.881Z,9.63
2023-01-28T19:18:54.650Z,9.30
2023-01-28T19:21:22.952Z,9.43
2023-01-28T19:23:58.343Z,9.38
2023-01-28T19:26:26.974Z,9.80
2023-01-28T19:28:54.949Z,9.48
2023-01-28T19:31:23.662Z,9.25
2023-01-28T19:33:55.147Z,9.13
2023-01-28T19:36:23.342Z,9.35
2023-01-28T19:38:50.676Z,8.15
2023-01-28T19:41:17.955Z,8.93
2023-01-28T19:43:45.817Z,8.73
2023-01-28T19:46:16.958Z,12.27
2023-01-28T19:48:45.180Z,9.35
2023-01-28T19:51:14.024Z,8.23
2023-01-28T19:53:42.798Z,8.20
2023-01-28T19:56:12.657Z,8.90
2023-01-28T19:58:42.237Z,7.95
2023-01-28T20:01:14.590Z,8.30
2023-01-28T20:03:42.768Z,8.68
2023-01-28T20:06:15.945Z,8.43
2023-01-28T20:08:44.396Z,8.60
2023-01-28T20:11:16.205Z,8.32
2023-01-28T20:13:45.560Z,8.07
2023-01-28T20:16:20.984Z,8.05
2023-01-28T20:19:03.794Z,8.45
2023-01-28T20:21:32.417Z,8.07
2023-01-28T20:24:01.536Z,8.40
2023-01-28T20:26:34.775Z,7.88
2023-01-28T20:29:10.907Z,8.80
2023-01-28T20:31:40.189Z,8.48
2023-01-28T20:34:08.153Z,7.65
2023-01-28T20:36:35.392Z,8.25
2023-01-28T20:39:02.899Z,7.85
2023-01-28T20:41:30.079Z,10.15
2023-01-28T20:43:57.705Z,10.40
2023-01-28T20:46:28.636Z,9.93
2023-01-28T20:48:58.241Z,11.73
2023-01-28T20:51:30.779Z,10.27
2023-01-28T20:53:59.241Z,18.20
2023-01-28T20:56:28.027Z,14.98
2023-01-28T20:58:57.978Z,15.18
2023-01-28T21:01:28.527Z,10.48
2023-01-28T21:03:56.495Z,10.27
2023-01-28T21:06:25.181Z,9.20
2023-01-28T21:08:53.197Z,10.25
2023-01-28T21:11:22.088Z,9.48
2023-01-28T21:13:49.507Z,9.98
2023-01-28T21:16:17.971Z,9.48
2023-01-28T21:18:45.581Z,9.45
2023-01-28T21:21:20.766Z,10.20
2023-01-28T21:23:48.340Z,10.45
2023-01-28T21:26:16.256Z,18.42
2023-01-28T21:28:44.159Z,37.15
2023-01-28T21:31:20.425Z,14.48
2023-01-28T21:33:52.778Z,13.70
2023-01-28T21:36:20.626Z,12.40
2023-01-28T21:38:52.476Z,12.23
2023-01-28T21:41:20.219Z,12.10
2023-01-28T21:43:53.723Z,12.98
2023-01-28T21:46:26.957Z,11.05
2023-01-28T21:48:56.223Z,11.68
2023-01-28T21:52:01.909Z,11.10
2023-01-28T21:56:56.579Z,10.93
2023-01-28T21:59:30.200Z,11.50
2023-01-28T22:02:10.639Z,10.90
2023-01-28T22:04:43.617Z,11.45
2023-01-28T22:07:13.328Z,12.07
2023-01-28T22:09:41.092Z,10.63
2023-01-28T22:12:08.394Z,11.02
2023-01-28T22:14:36.781Z,11.20
2023-01-28T22:17:07.521Z,11.35
2023-01-28T22:19:34.949Z,11.15
2023-01-28T22:22:02.113Z,11.50
2023-01-28T22:24:30.792Z,10.68
2023-01-28T22:26:58.263Z,10.40
2023-01-28T22:29:26.519Z,11.02
2023-01-28T22:31:54.922Z,11.95
2023-01-28T22:34:23.300Z,11.43
2023-01-28T22:36:51.190Z,11.25
2023-01-28T22:39:19.266Z,11.38
2023-01-28T22:41:46.972Z,11.82
2023-01-28T22:44:14.867Z,11.40
2023-01-28T22:46:42.657Z,11.90
2023-01-28T22:49:12.245Z,10.90
2023-01-28T22:51:40.357Z,11.18
2023-01-28T22:54:08.102Z,11.10
2023-01-28T22:56:35.488Z,11.57
2023-01-28T22:59:03.998Z,11.63
2023-01-28T23:01:31.540Z,11.27
2023-01-28T23:03:59.340Z,11.88
2023-01-28T23:06:28.420Z,12.02
2023-01-28T23:08:56.693Z,10.90
2023-01-28T23:11:28.479Z,10.38
2023-01-28T23:14:19.158Z,10.20
2023-01-28T23:17:05.568Z,11.85
2023-01-28T23:19:51.856Z,11.50
2023-01-28T23:22:49.895Z,10.77
2023-01-28T23:25:17.565Z,20.23
2023-01-28T23:27:45.559Z,11.63
2023-01-28T23:30:14.729Z,12.75
2023-01-28T23:32:47.295Z,12.45
2023-01-28T23:35:14.927Z,11.95
2023-01-28T23:37:42.552Z,11.95
2023-01-28T23:40:10.450Z,11.82
2023-01-28T23:42:37.855Z,11.40
2023-01-28T23:45:06.385Z,11.25
2023-01-28T23:47:33.692Z,11.32
2023-01-28T23:50:01.178Z,12.13
2023-01-28T23:52:28.513Z,11.35
2023-01-28T23:54:56.272Z,10.93
2023-01-28T23:57:23.812Z,11.15
2023-01-28T23:59:51.567Z,10.90
